createdAt,value
2022-12-12T00:02:44.048Z,8.82
2022-12-12T00:07:46.011Z,8.15
2022-12-12T00:12:48.193Z,8.10
2022-12-12T00:17:50.226Z,7.90
2022-12-12T00:22:52.084Z,8.20
2022-12-12T00:27:54.030Z,7.65
2022-12-12T00:32:55.871Z,8.60
2022-12-12T00:37:57.686Z,8.43
2022-12-12T00:42:59.432Z,8.77
2022-12-12T00:48:01.185Z,8.13
2022-12-12T00:53:03.217Z,8.18
2022-12-12T00:58:05.232Z,7.88
2022-12-12T01:03:07.441Z,9.05
2022-12-12T01:08:09.406Z,6.53
2022-12-12T01:13:11.331Z,8.48
2022-12-12T01:18:14.262Z,7.95
2022-12-12T01:23:16.161Z,9.55
2022-12-12T01:28:17.961Z,8.85
2022-12-12T01:33:19.897Z,8.63
2022-12-12T01:38:22.143Z,9.05
2022-12-12T01:43:25.571Z,7.53
2022-12-12T01:48:45.455Z,7.57
2022-12-12T01:53:50.185Z,8.95
2022-12-12T01:58:54.992Z,9.15
2022-12-12T02:03:59.264Z,8.43
2022-12-12T02:09:04.342Z,9.05
2022-12-12T02:14:06.225Z,8.10
2022-12-12T02:19:44.160Z,8.32
2022-12-12T02:25:12.564Z,9.65
2022-12-12T02:30:38.126Z,9.00
2022-12-12T02:36:00.146Z,8.90
2022-12-12T02:41:25.200Z,9.07
2022-12-12T02:46:41.573Z,9.93
2022-12-12T02:51:46.133Z,8.40
2022-12-12T02:56:50.669Z,9.07
2022-12-12T03:01:58.476Z,8.30
2022-12-12T03:07:35.924Z,8.32
2022-12-12T03:12:49.083Z,7.32
2022-12-12T03:18:05.718Z,9.90
2022-12-12T03:23:14.193Z,8.55
2022-12-12T03:28:31.070Z,7.78
2022-12-12T03:33:55.188Z,8.52
2022-12-12T03:39:02.045Z,9.18
2022-12-12T03:44:41.742Z,8.87
2022-12-12T03:49:50.341Z,11.15
2022-12-12T03:55:21.580Z,9.30
2022-12-12T04:00:23.538Z,8.75
2022-12-12T04:06:01.184Z,8.48
2022-12-12T04:11:39.308Z,9.13
2022-12-12T04:16:46.519Z,7.00
2022-12-12T04:22:18.138Z,9.43
2022-12-12T04:27:30.811Z,8.30
2022-12-12T04:32:37.731Z,6.88
2022-12-12T04:37:47.465Z,7.10
2022-12-12T04:43:13.897Z,7.35
2022-12-12T04:48:22.063Z,7.47
2022-12-12T04:53:33.404Z,8.43
2022-12-12T04:58:37.790Z,7.93
2022-12-12T05:03:49.382Z,7.75
2022-12-12T05:08:54.824Z,7.55
2022-12-12T05:13:56.661Z,7.07
2022-12-12T05:19:01.894Z,10.35
2022-12-12T05:24:03.986Z,6.95
2022-12-12T05:29:07.688Z,8.80
2022-12-12T05:34:10.329Z,7.88
2022-12-12T05:39:12.091Z,8.77
2022-12-12T05:44:13.981Z,7.38
2022-12-12T05:49:15.825Z,8.35
2022-12-12T05:54:17.642Z,7.50
2022-12-12T05:59:19.491Z,6.60
2022-12-12T06:04:21.336Z,6.60
2022-12-12T06:09:23.493Z,8.63
2022-12-12T06:14:26.411Z,8.43
2022-12-12T06:19:28.231Z,7.20
2022-12-12T06:24:30.225Z,8.30
2022-12-12T06:29:32.554Z,7.75
2022-12-12T06:34:34.461Z,7.50
2022-12-12T06:39:38.005Z,6.97
2022-12-12T06:44:39.809Z,7.53
2022-12-12T06:49:41.649Z,4.47
2022-12-12T06:54:43.485Z,7.43
2022-12-12T06:59:45.323Z,7.45
2022-12-12T07:04:47.175Z,8.63
2022-12-12T07:09:49.109Z,8.32
2022-12-12T07:14:51.029Z,5.97
2022-12-12T07:19:53.315Z,7.38
2022-12-12T07:24:55.405Z,7.05
2022-12-12T07:29:57.416Z,6.18
2022-12-12T07:34:59.271Z,6.32
2022-12-12T07:40:01.182Z,5.75
2022-12-12T07:45:03.063Z,7.90
2022-12-12T07:50:05.199Z,6.90
2022-12-12T07:55:07.587Z,7.05
2022-12-12T08:00:13.579Z,6.95
2022-12-12T08:05:16.528Z,7.40
2022-12-12T08:10:18.529Z,6.25
2022-12-12T08:15:20.781Z,7.40
2022-12-12T08:20:23.095Z,6.28
2022-12-12T08:25:24.927Z,3.63
2022-12-12T08:30:28.043Z,5.90
2022-12-12T08:35:31.785Z,6.95
2022-12-12T08:40:37.297Z,6.57
2022-12-12T08:45:39.475Z,5.55
2022-12-12T08:50:41.892Z,5.95
2022-12-12T08:55:43.657Z,5.25
2022-12-12T09:00:45.504Z,5.93
2022-12-12T09:05:47.642Z,7.88
2022-12-12T09:10:50.511Z,8.82
2022-12-12T09:15:52.987Z,7.32
2022-12-12T09:20:56.843Z,5.95
2022-12-12T09:25:59.134Z,7.18
2022-12-12T09:31:03.386Z,8.25
2022-12-12T09:36:08.145Z,6.22
2022-12-12T09:41:09.902Z,7.15
2022-12-12T09:46:32.646Z,7.13
2022-12-12T09:51:36.070Z,7.05
2022-12-12T09:56:57.462Z,6.93
2022-12-12T10:02:26.259Z,4.85
2022-12-12T10:07:51.672Z,4.38
2022-12-12T10:12:58.547Z,7.20
2022-12-12T10:18:05.358Z,6.30
2022-12-12T10:23:40.050Z,7.90
2022-12-12T10:28:42.075Z,6.13
2022-12-12T10:34:16.260Z,7.80
2022-12-12T10:39:32.992Z,6.97
2022-12-12T10:45:19.603Z,5.88
2022-12-12T10:50:37.670Z,6.57
2022-12-12T11:00:49.605Z,7.13
2022-12-12T11:05:51.486Z,7.30
2022-12-12T11:11:24.829Z,6.20
2022-12-12T11:16:40.788Z,6.50
2022-12-12T11:21:43.282Z,6.65
2022-12-12T11:27:04.466Z,6.25
2022-12-12T11:32:14.565Z,6.78
2022-12-12T11:37:19.196Z,6.82
2022-12-12T11:42:26.687Z,6.75
2022-12-12T11:47:41.017Z,6.20
2022-12-12T11:52:43.016Z,6.18
2022-12-12T11:57:47.687Z,6.03
2022-12-12T12:03:11.054Z,6.55
2022-12-12T12:08:28.938Z,6.47
2022-12-12T12:13:45.823Z,6.55
2022-12-12T12:19:16.275Z,6.07
2022-12-12T12:24:52.105Z,7.25
2022-12-12T12:30:13.705Z,6.57
2022-12-12T12:35:29.399Z,6.75
2022-12-12T12:40:43.321Z,6.15
2022-12-12T12:45:57.750Z,5.95
2022-12-12T12:51:04.725Z,5.60
2022-12-12T12:56:22.286Z,5.85
2022-12-12T13:01:42.485Z,5.97
2022-12-12T13:07:25.679Z,7.03
2022-12-12T13:12:44.501Z,6.72
2022-12-12T13:17:48.995Z,6.45
2022-12-12T13:23:21.777Z,5.85
2022-12-12T13:28:35.957Z,6.60
2022-12-12T13:33:44.557Z,6.15
2022-12-12T13:38:53.583Z,6.47
2022-12-12T13:43:57.950Z,8.25
2022-12-12T13:49:16.887Z,7.15
2022-12-12T13:54:38.598Z,6.60
2022-12-12T13:59:58.372Z,7.32
2022-12-12T14:05:35.624Z,6.82
2022-12-12T14:10:43.651Z,6.18
2022-12-12T14:15:48.358Z,6.68
2022-12-12T14:20:56.266Z,6.22
2022-12-12T14:26:00.006Z,5.88
2022-12-12T14:31:17.201Z,6.55
2022-12-12T14:36:37.663Z,5.93
2022-12-12T14:41:42.998Z,5.78
2022-12-12T14:46:44.781Z,7.35
2022-12-12T14:51:50.677Z,6.90
2022-12-12T14:56:59.178Z,5.55
2022-12-12T15:02:15.984Z,6.00
2022-12-12T15:07:28.083Z,6.20
2022-12-12T15:12:34.969Z,5.47
2022-12-12T15:17:46.104Z,6.83
2022-12-12T15:22:57.392Z,6.28
2022-12-12T15:27:59.564Z,6.28
2022-12-12T15:33:03.413Z,7.90
2022-12-12T15:38:13.157Z,7.18
2022-12-12T15:43:24.863Z,7.88
2022-12-12T15:48:27.605Z,8.20
2022-12-12T15:53:35.579Z,7.35
2022-12-12T15:58:43.686Z,8.95
2022-12-12T16:04:01.752Z,7.70
2022-12-12T16:14:42.450Z,9.13
2022-12-12T16:19:57.703Z,8.23
2022-12-12T16:25:23.394Z,8.10
2022-12-12T16:35:28.690Z,7.95
2022-12-12T16:40:30.717Z,9.27
2022-12-12T16:45:32.535Z,8.18
2022-12-12T16:50:35.426Z,8.45
2022-12-12T16:55:39.686Z,7.80
2022-12-12T17:00:41.595Z,8.88
2022-12-12T17:05:45.022Z,9.35
2022-12-12T17:10:48.488Z,8.70
2022-12-12T17:15:51.906Z,8.95
2022-12-12T17:20:53.806Z,7.72
2022-12-12T17:26:02.449Z,10.10
2022-12-12T17:31:09.667Z,8.75
2022-12-12T17:36:13.189Z,9.25
2022-12-12T17:41:15.043Z,8.50
2022-12-12T17:46:17.856Z,9.02
2022-12-12T17:51:23.972Z,8.48
2022-12-12T17:56:26.796Z,9.73
2022-12-12T18:01:33.621Z,10.18
2022-12-12T18:06:36.135Z,9.63
2022-12-12T18:11:38.970Z,9.82
2022-12-12T18:16:44.973Z,9.25
2022-12-12T18:22:02.843Z,9.07
2022-12-12T18:27:04.803Z,9.55
2022-12-12T18:32:06.788Z,11.52
2022-12-12T18:37:08.847Z,9.43
2022-12-12T18:42:12.013Z,9.63
2022-12-12T18:47:13.930Z,9.80
2022-12-12T18:52:16.112Z,10.00
2022-12-12T18:57:18.403Z,10.80
2022-12-12T19:02:20.369Z,11.88
2022-12-12T19:07:22.370Z,9.60
2022-12-12T19:12:24.357Z,9.07
2022-12-12T19:17:27.020Z,10.05
2022-12-12T19:22:44.946Z,11.90
2022-12-12T19:27:48.641Z,11.73
2022-12-12T19:32:50.535Z,10.82
2022-12-12T19:37:52.659Z,9.88
2022-12-12T19:42:54.525Z,8.40
2022-12-12T19:47:56.574Z,9.60
2022-12-12T19:53:01.457Z,9.20
2022-12-12T19:58:04.698Z,10.73
2022-12-12T20:03:06.705Z,8.57
2022-12-12T20:08:08.686Z,7.85
2022-12-12T20:13:11.696Z,9.02
2022-12-12T20:18:16.330Z,9.02
2022-12-12T20:23:18.651Z,7.00
2022-12-12T20:28:20.552Z,8.82
2022-12-12T20:33:22.419Z,7.70
2022-12-12T20:38:25.310Z,7.93
2022-12-12T20:43:28.602Z,7.15
2022-12-12T20:48:30.434Z,6.68
2022-12-12T20:53:36.388Z,6.88
2022-12-12T20:58:39.674Z,7.15
2022-12-12T21:03:43.115Z,6.22
2022-12-12T21:08:46.238Z,6.57
2022-12-12T21:13:50.815Z,7.57
2022-12-12T21:18:55.047Z,8.38
2022-12-12T21:23:58.023Z,6.57
2022-12-12T21:29:02.008Z,7.80
2022-12-12T21:34:06.147Z,7.03
2022-12-12T21:39:08.646Z,8.80
2022-12-12T21:44:10.706Z,7.93
2022-12-12T21:49:28.260Z,7.20
2022-12-12T21:54:30.763Z,7.50
2022-12-12T21:59:32.673Z,7.95
2022-12-12T22:04:34.515Z,7.88
2022-12-12T22:09:36.378Z,8.05
2022-12-12T22:14:38.239Z,7.07
2022-12-12T22:19:40.048Z,7.72
2022-12-12T22:24:41.837Z,6.88
2022-12-12T22:29:43.689Z,6.75
2022-12-12T22:34:45.545Z,6.68
2022-12-12T22:39:47.443Z,6.60
2022-12-12T22:44:49.205Z,6.45
2022-12-12T22:49:52.664Z,5.07
2022-12-12T22:54:54.933Z,6.10
2022-12-12T22:59:56.920Z,7.10
2022-12-12T23:04:58.854Z,7.07
2022-12-12T23:10:02.446Z,6.88
2022-12-12T23:15:05.031Z,7.03
2022-12-12T23:20:07.998Z,6.68
2022-12-12T23:25:09.746Z,6.72
2022-12-12T23:30:11.875Z,5.63
2022-12-12T23:35:14.192Z,6.15
2022-12-12T23:40:16.363Z,6.45
2022-12-12T23:45:18.366Z,5.80
2022-12-12T23:50:20.226Z,6.68
2022-12-12T23:55:22.107Z,6.82
